< Typhoon 200202 2002 Season Typhoon 200204 >
Typhoon 200203 (HAGIBIS)
General InformationTrack Information on Google MapsDetailed Wind InformationList of All Images || NewsDisaster Info.ResourceGoogle EarthGE AnimationAtom FeedGeoJSON
Detalied Best Track (Time Zone = UTC)
Year Month Day Hour Lat. Long. Pressure (hPa) Wind (kt) Class Image Chart
2002 5 14 00 3.5 149.0 1008 0 2 Image Chart
2002 5 14 06 4.0 149.5 1006 0 2 Image Chart
2002 5 14 12 5.0 149.0 1006 0 2 Image Chart
2002 5 14 18 5.5 148.5 1006 0 2 Image Chart
2002 5 15 00 5.8 148.6 1006 0 2 Image Chart
2002 5 15 06 7.3 149.4 1006 0 2 Image Chart
2002 5 15 12 8.0 147.7 1006 0 2 Image Chart
2002 5 15 18 8.9 146.7 1004 0 2 Image Chart
2002 5 16 00 9.9 145.8 1004 0 2 Image Chart
2002 5 16 06 11.5 144.7 1004 0 2 Image Chart
2002 5 16 12 12.3 143.1 1000 35 3 Image Chart
2002 5 16 18 12.9 141.7 996 40 3 Image Chart
2002 5 17 00 13.0 140.5 990 50 4 Image Chart
2002 5 17 06 13.3 140.0 985 50 4 Image Chart
2002 5 17 12 13.9 139.6 980 55 4 Image Chart
2002 5 17 18 14.5 139.4 975 60 4 Image Chart
2002 5 18 00 15.3 139.4 970 65 5 Image Chart
2002 5 18 06 16.1 139.4 965 70 5 Image Chart
2002 5 18 12 16.8 139.6 960 75 5 Image Chart
2002 5 18 18 17.2 140.0 955 80 5 Image Chart
2002 5 19 00 17.7 140.5 950 85 5 Image Chart
2002 5 19 06 18.4 141.2 940 90 5 Image Chart
2002 5 19 12 19.3 142.1 935 95 5 Image Chart
2002 5 19 18 20.8 143.2 935 95 5 Image Chart
2002 5 20 00 22.5 144.6 945 85 5 Image Chart
2002 5 20 06 24.7 146.5 955 75 5 Image Chart
2002 5 20 12 27.0 149.3 960 70 5 Image Chart
2002 5 20 18 29.8 152.6 965 65 5 Image Chart
2002 5 21 00 32.9 155.9 970 65 5 Image Chart
2002 5 21 06 35.4 161.0 975 60 4 Image Chart
2002 5 21 12 37.6 164.4 985 50 4 Image Chart
2002 5 21 18 38.3 169.1 990 0 6 Image Chart
2002 5 22 00 38.6 173.7 996 0 6 Image Chart
2002 5 22 06 39.8 179.4 996 0 6 Image Chart
Japan Meteorological Agency Best Track Data | Correction Date : 2006-01-18
< Typhoon 200202 2002 Season Typhoon 200204 >

Help